Time;durP1;ratioP1;P1;durP2;ratioP2;P2;SDS_P1;SDS_P2;PMS_P1;PMS_P2;Temp;Humidity;BMP_temperature;BMP_pressure;BME280_temperature;BME280_humidity;BME280_pressure;Samples;Min_cycle;Max_cycle;Signal;HPM_P1;HPM_P2
2022/08/19 00:02:07;;;;;;;9.52;7.03;;;;;;;;;;5071467;28;20747;-45
2022/08/19 00:04:36;;;;;;;12.38;7.78;;;;;;;;;;5072615;28;20082;-42
2022/08/19 00:07:01;;;;;;;14.98;7.43;;;;;;;;;;5072814;28;20048;-43
2022/08/19 00:09:27;;;;;;;15.38;7.53;;;;;;;;;;5071789;28;20059;-44
2022/08/19 00:11:52;;;;;;;10.00;6.82;;;;;;;;;;5070869;28;20078;-42
2022/08/19 00:14:20;;;;;;;12.35;7.20;;;;;;;;;;5071918;28;20031;-42
2022/08/19 00:16:46;;;;;;;10.10;7.32;;;;;;;;;;5070685;28;20070;-40
2022/08/19 00:19:11;;;;;;;10.85;7.93;;;;;;;;;;5070416;28;20521;-45
2022/08/19 00:21:39;;;;;;;12.40;8.02;;;;;;;;;;5069128;28;20017;-44
2022/08/19 00:24:05;;;;;;;8.73;7.35;;;;;;;;;;5071087;28;20460;-44
2022/08/19 00:26:30;;;;;;;8.90;7.25;;;;;;;;;;5072232;28;20021;-43
2022/08/19 00:28:55;;;;;;;10.77;7.90;;;;;;;;;;5071714;28;20017;-42
2022/08/19 00:31:21;;;;;;;8.82;6.50;;;;;;;;;;5071845;28;20255;-44
2022/08/19 00:33:50;;;;;;;9.60;7.50;;;;;;;;;;5071493;28;20025;-44
2022/08/19 00:36:15;;;;;;;9.18;7.10;;;;;;;;;;5070333;28;20017;-46
2022/08/19 00:38:42;;;;;;;9.60;7.45;;;;;;;;;;5069849;28;20506;-45
2022/08/19 00:41:08;;;;;;;10.15;7.10;;;;;;;;;;5071126;28;20057;-41
2022/08/19 00:43:33;;;;;;;8.18;7.10;;;;;;;;;;5070208;28;20056;-44
2022/08/19 00:45:59;;;;;;;12.85;7.80;;;;;;;;;;5071352;28;20020;-44
2022/08/19 00:48:24;;;;;;;9.10;7.15;;;;;;;;;;5070189;28;20021;-45
2022/08/19 00:50:52;;;;;;;9.87;7.67;;;;;;;;;;5070822;28;20025;-43
2022/08/19 00:53:19;;;;;;;9.43;7.40;;;;;;;;;;5071521;28;20241;-44
2022/08/19 00:55:46;;;;;;;9.77;7.22;;;;;;;;;;5070009;28;20460;-43
2022/08/19 00:58:13;;;;;;;12.07;7.22;;;;;;;;;;5070849;28;20028;-44
2022/08/19 01:00:38;;;;;;;10.55;7.38;;;;;;;;;;5070848;28;20048;-43
2022/08/19 01:03:09;;;;;;;13.45;8.32;;;;;;;;;;5069330;28;20048;-44
2022/08/19 01:05:34;;;;;;;11.88;8.02;;;;;;;;;;5070550;28;20020;-43
2022/08/19 01:08:01;;;;;;;11.48;7.72;;;;;;;;;;5069579;28;20535;-42
2022/08/19 01:10:28;;;;;;;9.93;8.18;;;;;;;;;;5070408;28;20099;-43
2022/08/19 01:12:54;;;;;;;7.63;6.78;;;;;;;;;;5069662;28;20048;-43
2022/08/19 01:15:22;;;;;;;12.55;7.63;;;;;;;;;;5071200;28;20090;-42
2022/08/19 01:17:48;;;;;;;9.68;7.63;;;;;;;;;;5070655;28;20036;-45
2022/08/19 01:20:16;;;;;;;10.20;7.65;;;;;;;;;;5070305;28;20024;-44
2022/08/19 01:22:46;;;;;;;11.52;7.82;;;;;;;;;;5071150;28;20051;-43
2022/08/19 01:25:13;;;;;;;8.77;7.13;;;;;;;;;;5069357;28;20024;-44
2022/08/19 01:27:39;;;;;;;17.92;7.78;;;;;;;;;;5070639;28;20024;-44
2022/08/19 01:30:05;;;;;;;11.65;7.95;;;;;;;;;;5070221;28;20153;-44
2022/08/19 01:32:30;;;;;;;11.85;8.00;;;;;;;;;;5070296;28;20029;-46
2022/08/19 01:34:56;;;;;;;9.95;7.50;;;;;;;;;;5070089;28;20013;-46
2022/08/19 01:37:21;;;;;;;16.03;8.63;;;;;;;;;;5070546;28;20028;-43
2022/08/19 01:39:47;;;;;;;10.68;8.38;;;;;;;;;;5070756;28;20291;-45
2022/08/19 01:42:12;;;;;;;11.02;8.10;;;;;;;;;;5069491;28;20460;-44
2022/08/19 01:44:40;;;;;;;10.80;8.32;;;;;;;;;;5068771;28;20349;-45
2022/08/19 01:47:06;;;;;;;11.23;7.78;;;;;;;;;;5070636;28;20033;-44
2022/08/19 01:49:32;;;;;;;9.90;8.18;;;;;;;;;;5068500;28;20044;-44
2022/08/19 01:51:59;;;;;;;8.53;7.63;;;;;;;;;;5069266;28;20012;-44
2022/08/19 01:54:24;;;;;;;13.65;8.00;;;;;;;;;;5067996;28;20350;-43
2022/08/19 01:56:55;;;;;;;10.18;8.30;;;;;;;;;;5069258;28;20048;-42
2022/08/19 01:59:21;;;;;;;12.27;7.95;;;;;;;;;;5069966;28;20036;-45
2022/08/19 02:01:46;;;;;;;10.15;7.95;;;;;;;;;;5068406;28;20021;-45
2022/08/19 02:04:11;;;;;;;10.93;8.02;;;;;;;;;;5070013;28;20400;-45
2022/08/19 02:06:37;;;;;;;13.00;8.70;;;;;;;;;;5069016;28;20274;-41
2022/08/19 02:09:03;;;;;;;11.43;7.88;;;;;;;;;;5069084;28;20082;-43
2022/08/19 02:11:33;;;;;;;10.57;8.15;;;;;;;;;;5069688;28;20063;-42
2022/08/19 02:13:59;;;;;;;10.45;8.40;;;;;;;;;;5069130;28;20016;-43
2022/08/19 02:16:25;;;;;;;14.57;7.95;;;;;;;;;;5070010;28;20099;-45
2022/08/19 02:18:50;;;;;;;11.97;7.87;;;;;;;;;;5068401;28;20033;-45
2022/08/19 02:21:17;;;;;;;15.15;7.68;;;;;;;;;;5068551;28;20238;-43
2022/08/19 02:23:43;;;;;;;12.88;9.07;;;;;;;;;;5070616;28;20035;-44
2022/08/19 02:26:08;;;;;;;15.07;8.45;;;;;;;;;;5069886;28;20024;-44
2022/08/19 02:28:34;;;;;;;10.48;7.75;;;;;;;;;;5068913;28;20264;-42
2022/08/19 02:31:00;;;;;;;10.80;8.25;;;;;;;;;;5069543;28;20024;-44
2022/08/19 02:33:25;;;;;;;10.88;8.40;;;;;;;;;;5069696;28;20017;-42
2022/08/19 02:35:51;;;;;;;11.70;8.30;;;;;;;;;;5070532;28;20043;-41
2022/08/19 02:38:25;;;;;;;10.87;8.07;;;;;;;;;;5070673;28;20032;-44
2022/08/19 02:40:52;;;;;;;12.20;8.15;;;;;;;;;;5069273;28;20332;-45
2022/08/19 02:43:20;;;;;;;10.07;7.82;;;;;;;;;;5069721;28;20025;-43
2022/08/19 02:45:45;;;;;;;11.25;8.55;;;;;;;;;;5072035;28;20352;-45
2022/08/19 02:48:10;;;;;;;12.45;8.57;;;;;;;;;;5073864;28;20035;-46
2022/08/19 02:50:40;;;;;;;12.47;8.53;;;;;;;;;;5073382;28;20055;-44
2022/08/19 02:53:06;;;;;;;15.55;9.00;;;;;;;;;;5073824;28;20238;-42
2022/08/19 02:55:31;;;;;;;10.18;8.57;;;;;;;;;;5072744;28;20031;-46
2022/08/19 02:57:56;;;;;;;16.02;8.48;;;;;;;;;;5071993;28;20032;-43
2022/08/19 03:00:23;;;;;;;11.07;9.05;;;;;;;;;;5071938;28;20121;-44
2022/08/19 03:02:49;;;;;;;15.77;8.40;;;;;;;;;;5072130;28;20043;-44
2022/08/19 03:05:14;;;;;;;16.13;8.50;;;;;;;;;;5073941;28;20021;-43
2022/08/19 03:07:39;;;;;;;12.02;9.10;;;;;;;;;;5072406;28;20024;-45
2022/08/19 03:10:05;;;;;;;11.60;8.30;;;;;;;;;;5073239;28;20048;-46
2022/08/19 03:12:30;;;;;;;11.20;8.13;;;;;;;;;;5073521;28;20663;-45
2022/08/19 03:14:56;;;;;;;12.03;8.80;;;;;;;;;;5073226;28;20012;-45
2022/08/19 03:17:21;;;;;;;13.98;8.45;;;;;;;;;;5073008;28;20241;-43
2022/08/19 03:19:47;;;;;;;10.70;8.20;;;;;;;;;;5071497;28;20052;-46
2022/08/19 03:22:13;;;;;;;11.15;8.80;;;;;;;;;;5072266;28;20022;-44
2022/08/19 03:24:39;;;;;;;13.13;8.73;;;;;;;;;;5073033;28;20060;-44
2022/08/19 03:27:04;;;;;;;15.30;8.98;;;;;;;;;;5073598;28;20052;-43
2022/08/19 03:29:31;;;;;;;14.77;9.25;;;;;;;;;;5071583;28;20094;-44
2022/08/19 03:31:57;;;;;;;12.40;8.52;;;;;;;;;;5072830;28;20054;-44
2022/08/19 03:34:26;;;;;;;12.70;8.95;;;;;;;;;;5073253;28;20032;-45
2022/08/19 03:36:51;;;;;;;14.77;8.75;;;;;;;;;;5073538;28;20024;-43
2022/08/19 03:39:17;;;;;;;14.68;8.85;;;;;;;;;;5073141;28;20033;-45
2022/08/19 03:41:43;;;;;;;12.48;9.55;;;;;;;;;;5070761;28;20021;-43
2022/08/19 03:44:09;;;;;;;12.25;9.20;;;;;;;;;;5072739;28;20028;-44
2022/08/19 03:46:35;;;;;;;15.00;9.77;;;;;;;;;;5072946;28;20067;-43
2022/08/19 03:49:03;;;;;;;13.48;9.32;;;;;;;;;;5073015;28;20035;-46
2022/08/19 03:51:30;;;;;;;14.27;9.13;;;;;;;;;;5072774;28;20048;-45
2022/08/19 03:53:57;;;;;;;19.10;9.52;;;;;;;;;;5072616;28;20311;-43
2022/08/19 03:56:22;;;;;;;13.13;9.63;;;;;;;;;;5072470;28;20035;-45
2022/08/19 03:58:48;;;;;;;22.40;11.55;;;;;;;;;;5072227;28;20036;-47
2022/08/19 04:01:15;;;;;;;16.17;9.63;;;;;;;;;;5072050;28;20323;-44
2022/08/19 04:03:40;;;;;;;15.85;9.77;;;;;;;;;;5072740;28;20031;-44
2022/08/19 04:06:14;;;;;;;14.25;9.63;;;;;;;;;;5073036;28;20020;-44
2022/08/19 04:08:41;;;;;;;15.68;9.93;;;;;;;;;;5052261;28;20024;-45
2022/08/19 04:11:07;;;;;;;17.70;9.55;;;;;;;;;;5052365;28;20117;-45
2022/08/19 04:13:33;;;;;;;13.10;9.90;;;;;;;;;;5051711;28;20152;-47
2022/08/19 04:15:59;;;;;;;14.88;9.55;;;;;;;;;;5052206;28;20528;-43
2022/08/19 04:18:25;;;;;;;17.10;9.80;;;;;;;;;;5050681;28;20029;-42
2022/08/19 04:20:50;;;;;;;15.27;10.02;;;;;;;;;;5052459;28;20279;-43
2022/08/19 04:23:16;;;;;;;11.95;9.93;;;;;;;;;;5052400;28;20100;-44
2022/08/19 04:25:42;;;;;;;17.98;9.57;;;;;;;;;;5052102;28;20029;-44
2022/08/19 04:28:09;;;;;;;15.32;8.90;;;;;;;;;;5052708;28;20384;-43
2022/08/19 04:30:42;;;;;;;14.00;9.55;;;;;;;;;;5050885;28;20056;-43
2022/08/19 04:33:08;;;;;;;16.05;8.73;;;;;;;;;;5052445;28;20468;-43
2022/08/19 04:35:41;;;;;;;14.20;9.57;;;;;;;;;;5051970;28;20017;-43
2022/08/19 04:38:06;;;;;;;14.57;9.02;;;;;;;;;;5052036;28;20480;-43
2022/08/19 04:43:16;;;;;;;17.52;10.40;;;;;;;;;;5052057;28;20081;-45
2022/08/19 04:45:45;;;;;;;13.60;9.35;;;;;;;;;;5050228;28;20025;-43
2022/08/19 04:48:11;;;;;;;;;;;;;;;;;;5051419;28;20067;-43
2022/08/19 04:50:36;;;;;;;12.98;9.30;;;;;;;;;;5051334;28;19916;-43
2022/08/19 04:53:01;;;;;;;17.33;9.70;;;;;;;;;;5072260;28;20217;-42
2022/08/19 04:55:26;;;;;;;14.98;9.18;;;;;;;;;;5071391;28;20336;-46
2022/08/19 04:57:52;;;;;;;13.43;8.97;;;;;;;;;;5071770;28;20124;-44
2022/08/19 05:00:17;;;;;;;16.05;10.45;;;;;;;;;;5071149;28;20273;-40
2022/08/19 05:02:43;;;;;;;23.73;11.07;;;;;;;;;;5071649;28;20025;-43
2022/08/19 05:05:08;;;;;;;15.53;9.67;;;;;;;;;;5071345;28;20464;-43
2022/08/19 05:07:34;;;;;;;15.90;10.73;;;;;;;;;;5070324;28;20240;-44
2022/08/19 05:09:59;;;;;;;16.50;9.55;;;;;;;;;;5070682;28;20012;-46
2022/08/19 05:12:25;;;;;;;13.80;9.52;;;;;;;;;;5069311;28;20052;-42
2022/08/19 05:14:51;;;;;;;15.45;10.13;;;;;;;;;;5071170;28;20487;-46
2022/08/19 05:17:16;;;;;;;15.00;9.30;;;;;;;;;;5071115;28;20074;-42
2022/08/19 05:22:34;;;;;;;13.43;9.02;;;;;;;;;;5071686;28;20027;-40
2022/08/19 05:25:00;;;;;;;13.18;9.95;;;;;;;;;;5070692;28;20447;-47
2022/08/19 05:27:26;;;;;;;11.90;8.73;;;;;;;;;;5070920;28;20454;-43
2022/08/19 05:29:51;;;;;;;15.30;8.67;;;;;;;;;;5070660;28;20112;-44
2022/08/19 05:32:16;;;;;;;16.77;8.53;;;;;;;;;;5070910;28;20238;-41
2022/08/19 05:34:42;;;;;;;11.68;8.30;;;;;;;;;;5069102;28;20292;-44
2022/08/19 05:37:08;;;;;;;16.83;9.48;;;;;;;;;;5071787;28;20103;-43
2022/08/19 05:39:34;;;;;;;19.60;9.27;;;;;;;;;;5068752;28;20450;-43
2022/08/19 05:42:05;;;;;;;20.15;9.02;;;;;;;;;;5071030;28;20027;-46
2022/08/19 05:44:31;;;;;;;15.38;9.15;;;;;;;;;;5068825;28;20111;-44
2022/08/19 05:46:58;;;;;;;13.63;8.80;;;;;;;;;;5070783;28;20099;-42
2022/08/19 05:49:25;;;;;;;18.95;8.70;;;;;;;;;;5070336;28;20021;-45
2022/08/19 05:51:50;;;;;;;13.50;8.43;;;;;;;;;;5069799;28;20031;-42
2022/08/19 05:54:16;;;;;;;18.45;8.82;;;;;;;;;;5069829;28;20020;-44
2022/08/19 05:56:41;;;;;;;17.67;8.93;;;;;;;;;;5066763;28;20023;-45
2022/08/19 05:59:10;;;;;;;15.40;8.57;;;;;;;;;;5067664;28;20028;-44
2022/08/19 06:01:36;;;;;;;26.23;10.15;;;;;;;;;;5062177;28;20100;-44
2022/08/19 06:04:02;;;;;;;16.27;9.52;;;;;;;;;;5070144;28;20017;-42
2022/08/19 06:06:28;;;;;;;14.88;9.52;;;;;;;;;;5068153;28;20107;-44
2022/08/19 06:08:53;;;;;;;17.42;9.50;;;;;;;;;;5068833;28;20051;-43
2022/08/19 06:11:18;;;;;;;14.60;8.10;;;;;;;;;;5069997;28;20085;-43
2022/08/19 06:13:46;;;;;;;14.27;9.03;;;;;;;;;;5068661;28;20063;-41
2022/08/19 06:16:12;;;;;;;17.73;8.35;;;;;;;;;;5073994;28;20032;-43
2022/08/19 06:18:37;;;;;;;35.65;9.90;;;;;;;;;;5070459;28;20171;-44
2022/08/19 06:21:04;;;;;;;11.77;8.67;;;;;;;;;;5078380;28;20028;-44
2022/08/19 06:23:29;;;;;;;18.88;8.95;;;;;;;;;;5072662;28;20257;-44
2022/08/19 06:25:54;;;;;;;13.52;7.85;;;;;;;;;;5076715;28;20745;-44
2022/08/19 06:28:20;;;;;;;17.60;8.52;;;;;;;;;;5071001;28;20476;-45
2022/08/19 06:30:46;;;;;;;17.80;8.48;;;;;;;;;;5073038;28;20011;-45
2022/08/19 06:33:11;;;;;;;17.88;8.55;;;;;;;;;;5061783;28;20039;-45
2022/08/19 06:35:40;;;;;;;23.38;7.95;;;;;;;;;;5062114;28;20017;-43
2022/08/19 06:38:06;;;;;;;14.15;7.78;;;;;;;;;;5068100;28;20439;-42
2022/08/19 06:40:31;;;;;;;13.50;7.88;;;;;;;;;;5072216;28;20020;-47
2022/08/19 06:42:58;;;;;;;16.00;7.07;;;;;;;;;;5066015;28;20754;-45
2022/08/19 06:45:23;;;;;;;16.45;7.80;;;;;;;;;;5064765;28;20790;-44
2022/08/19 06:47:49;;;;;;;16.95;7.43;;;;;;;;;;5062708;28;20021;-43
2022/08/19 06:50:14;;;;;;;15.30;6.53;;;;;;;;;;5061652;28;20070;-44
2022/08/19 06:52:39;;;;;;;15.80;7.50;;;;;;;;;;5065721;28;20005;-40
2022/08/19 06:55:05;;;;;;;10.93;6.72;;;;;;;;;;5072564;28;20237;-43
2022/08/19 06:57:32;;;;;;;11.32;6.32;;;;;;;;;;5070493;28;20423;-45
2022/08/19 06:59:59;;;;;;;14.27;6.15;;;;;;;;;;5073242;28;20048;-46
2022/08/19 07:02:26;;;;;;;9.02;6.13;;;;;;;;;;5073919;28;20028;-41
2022/08/19 07:04:52;;;;;;;14.38;6.32;;;;;;;;;;5075003;28;20032;-44
2022/08/19 07:07:17;;;;;;;14.80;6.03;;;;;;;;;;5077990;28;20020;-42
2022/08/19 07:09:43;;;;;;;7.40;6.57;;;;;;;;;;5091009;28;20685;-46
2022/08/19 07:12:10;;;;;;;8.70;5.57;;;;;;;;;;5072579;28;20024;-44
2022/08/19 07:14:37;;;;;;;16.48;6.07;;;;;;;;;;5068069;28;20127;-44
2022/08/19 07:17:03;;;;;;;12.30;6.40;;;;;;;;;;5072228;28;20036;-45
2022/08/19 07:19:29;;;;;;;8.35;5.78;;;;;;;;;;5070833;28;20059;-46
2022/08/19 07:21:54;;;;;;;19.45;6.75;;;;;;;;;;5085049;28;20475;-44
2022/08/19 07:24:25;;;;;;;11.25;6.15;;;;;;;;;;5093219;28;20460;-45
2022/08/19 07:26:51;;;;;;;13.70;7.53;;;;;;;;;;5091395;28;20055;-47
2022/08/19 07:29:17;;;;;;;10.50;6.20;;;;;;;;;;5082817;28;20024;-44
2022/08/19 07:31:43;;;;;;;9.20;6.30;;;;;;;;;;5074815;28;20098;-45
2022/08/19 07:34:10;;;;;;;12.55;6.65;;;;;;;;;;5091691;28;20024;-46
2022/08/19 07:36:37;;;;;;;11.50;6.03;;;;;;;;;;5081854;28;20013;-45
2022/08/19 07:39:04;;;;;;;7.93;5.40;;;;;;;;;;5072576;28;20074;-45
2022/08/19 07:41:31;;;;;;;11.98;5.85;;;;;;;;;;5070927;28;20472;-44
2022/08/19 07:43:57;;;;;;;16.60;6.13;;;;;;;;;;5070680;28;20532;-45
2022/08/19 07:46:22;;;;;;;16.42;6.43;;;;;;;;;;5069790;28;20059;-48
2022/08/19 07:48:49;;;;;;;11.48;6.10;;;;;;;;;;5080287;28;20048;-44
2022/08/19 07:51:17;;;;;;;17.48;6.18;;;;;;;;;;5071313;28;20031;-45
2022/08/19 07:53:44;;;;;;;10.85;5.72;;;;;;;;;;5079829;28;20094;-46
2022/08/19 07:56:11;;;;;;;13.43;5.70;;;;;;;;;;5087942;28;20024;-47
2022/08/19 07:58:37;;;;;;;13.63;5.82;;;;;;;;;;5077799;28;20365;-45
2022/08/19 08:01:04;;;;;;;15.68;5.50;;;;;;;;;;5090272;28;20032;-45
2022/08/19 08:11:39;;;;;;;18.83;5.90;;;;;;;;;;5070855;28;20107;-44
2022/08/19 08:14:05;;;;;;;9.27;4.90;;;;;;;;;;5071767;28;20140;-45
2022/08/19 08:16:34;;;;;;;15.02;4.82;;;;;;;;;;5066874;28;20013;-45
2022/08/19 08:19:00;;;;;;;17.65;4.60;;;;;;;;;;5069060;28;20024;-42
2022/08/19 08:21:25;;;;;;;12.18;5.00;;;;;;;;;;5064815;28;20035;-44
2022/08/19 08:23:51;;;;;;;13.82;5.00;;;;;;;;;;5063059;28;20024;-45
2022/08/19 08:26:17;;;;;;;13.88;5.32;;;;;;;;;;5067954;28;20024;-43
2022/08/19 08:28:42;;;;;;;20.20;5.03;;;;;;;;;;5068772;28;20028;-42
2022/08/19 08:31:09;;;;;;;11.90;5.30;;;;;;;;;;5069160;28;20025;-42
2022/08/19 08:33:34;;;;;;;9.68;5.15;;;;;;;;;;5066825;28;20257;-46
2022/08/19 08:36:00;;;;;;;154.65;79.30;;;;;;;;;;5071186;28;20035;-44
2022/08/19 08:38:25;;;;;;;96.55;33.50;;;;;;;;;;5076465;28;20036;-45
2022/08/19 08:40:54;;;;;;;161.85;98.70;;;;;;;;;;5061058;28;20012;-42
2022/08/19 08:43:33;;;;;;;18.55;6.97;;;;;;;;;;5062292;28;20024;-45
2022/08/19 08:46:07;;;;;;;60.72;28.30;;;;;;;;;;5066143;28;20480;-42
2022/08/19 08:48:41;;;;;;;28.05;8.18;;;;;;;;;;5069832;28;20119;-44
2022/08/19 08:51:12;;;;;;;17.55;6.65;;;;;;;;;;5067210;28;20036;-42
2022/08/19 08:53:38;;;;;;;15.40;6.22;;;;;;;;;;5071028;28;20028;-44
2022/08/19 08:56:05;;;;;;;15.70;6.05;;;;;;;;;;5074374;28;20103;-45
2022/08/19 08:58:43;;;;;;;8.80;4.82;;;;;;;;;;5069815;28;20115;-45
2022/08/19 09:01:10;;;;;;;13.35;5.15;;;;;;;;;;5069936;28;20039;-44
2022/08/19 09:03:45;;;;;;;12.55;5.15;;;;;;;;;;5078941;27;20248;-34
2022/08/19 09:06:10;;;;;;;7.78;5.28;;;;;;;;;;5083549;28;20036;-34
2022/08/19 09:08:48;;;;;;;9.20;4.90;;;;;;;;;;5066364;28;20031;-35
2022/08/19 09:11:46;;;;;;;13.27;5.27;;;;;;;;;;5068589;28;20020;-39
2022/08/19 09:14:20;;;;;;;11.40;4.72;;;;;;;;;;5024487;28;20058;-35
2022/08/19 09:16:46;;;;;;;10.05;4.45;;;;;;;;;;5054907;28;20046;-35
2022/08/19 09:19:11;;;;;;;11.98;5.07;;;;;;;;;;5085860;28;20475;-38
2022/08/19 09:21:38;;;;;;;11.38;4.47;;;;;;;;;;5085812;28;20031;-37
2022/08/19 09:24:04;;;;;;;6.80;3.95;;;;;;;;;;5079509;28;20029;-36
2022/08/19 09:26:30;;;;;;;8.95;3.88;;;;;;;;;;5073704;28;20874;-32
2022/08/19 09:28:56;;;;;;;7.68;4.45;;;;;;;;;;5065134;28;20058;-37
2022/08/19 09:31:23;;;;;;;5.75;4.32;;;;;;;;;;5086103;28;20028;-33
2022/08/19 09:33:49;;;;;;;13.07;4.20;;;;;;;;;;5086263;28;20021;-33
2022/08/19 09:36:15;;;;;;;6.32;3.95;;;;;;;;;;5069332;28;20065;-35
2022/08/19 09:38:41;;;;;;;9.77;4.68;;;;;;;;;;5087986;28;20069;-36
2022/08/19 09:41:10;;;;;;;10.90;4.25;;;;;;;;;;5086915;28;20527;-35
2022/08/19 09:43:38;;;;;;;8.40;4.18;;;;;;;;;;5068960;28;20495;-35
2022/08/19 09:46:06;;;;;;;15.88;4.47;;;;;;;;;;5086972;28;20499;-37
2022/08/19 09:48:34;;;;;;;7.15;3.88;;;;;;;;;;5087205;28;20027;-34
2022/08/19 09:51:04;;;;;;;8.40;4.20;;;;;;;;;;5083098;28;20028;-35
2022/08/19 09:53:29;;;;;;;7.65;4.22;;;;;;;;;;5066818;28;20032;-37
2022/08/19 09:55:55;;;;;;;18.05;4.07;;;;;;;;;;5066459;28;20103;-35
2022/08/19 09:58:20;;;;;;;13.20;4.23;;;;;;;;;;5067045;28;20048;-35
2022/08/19 10:00:46;;;;;;;5.85;4.15;;;;;;;;;;5048915;28;20242;-35
2022/08/19 10:03:11;;;;;;;10.30;4.38;;;;;;;;;;5050641;28;20057;-37
2022/08/19 10:05:49;;;;;;;9.05;3.55;;;;;;;;;;5028167;28;20017;-35
2022/08/19 10:08:15;;;;;;;6.85;4.00;;;;;;;;;;5052888;28;20067;-36
2022/08/19 10:10:43;;;;;;;7.22;4.00;;;;;;;;;;5066501;28;20021;-33
2022/08/19 10:13:08;;;;;;;9.75;3.80;;;;;;;;;;5063829;28;20025;-37
2022/08/19 10:15:34;;;;;;;7.30;3.67;;;;;;;;;;5051718;28;20108;-36
2022/08/19 10:18:00;;;;;;;9.77;4.00;;;;;;;;;;5053375;28;20013;-33
2022/08/19 10:20:25;;;;;;;6.15;4.07;;;;;;;;;;5030812;28;20029;-35
2022/08/19 10:22:50;;;;;;;7.43;4.93;;;;;;;;;;5029008;28;20057;-36
2022/08/19 10:25:16;;;;;;;5.20;3.90;;;;;;;;;;5043151;28;20040;-36
2022/08/19 10:27:41;;;;;;;8.82;4.28;;;;;;;;;;5050742;28;20036;-36
2022/08/19 10:30:08;;;;;;;7.65;4.15;;;;;;;;;;5028892;28;20021;-34
2022/08/19 10:32:33;;;;;;;8.23;3.90;;;;;;;;;;5048822;28;20028;-39
2022/08/19 10:34:59;;;;;;;6.85;4.03;;;;;;;;;;5029059;28;20078;-34
2022/08/19 10:37:24;;;;;;;7.97;4.20;;;;;;;;;;5030901;28;20409;-34
2022/08/19 10:39:50;;;;;;;17.07;4.37;;;;;;;;;;5019975;28;20025;-34
2022/08/19 10:42:16;;;;;;;10.77;3.80;;;;;;;;;;5052599;28;20692;-36
2022/08/19 10:44:42;;;;;;;8.40;4.53;;;;;;;;;;5042305;28;20510;-36
2022/08/19 10:47:07;;;;;;;6.13;3.58;;;;;;;;;;5024083;28;20109;-35
2022/08/19 10:52:32;;;;;;;7.05;3.80;;;;;;;;;;5050555;28;20476;-39
2022/08/19 10:52:33;;;;;;;10.73;4.03;;;;;;;;;;5046658;28;20056;-35
2022/08/19 10:57:59;;;;;;;7.60;3.55;;;;;;;;;;5004795;28;20036;-35
2022/08/19 11:00:25;;;;;;;6.70;3.70;;;;;;;;;;5051926;28;20020;-38
2022/08/19 11:02:50;;;;;;;6.32;3.90;;;;;;;;;;5057106;28;20078;-35
2022/08/19 11:05:16;;;;;;;9.85;3.72;;;;;;;;;;5070173;28;20021;-36
2022/08/19 11:07:42;;;;;;;11.57;4.18;;;;;;;;;;5069951;28;20024;-35
2022/08/19 11:10:09;;;;;;;7.90;3.90;;;;;;;;;;5052662;28;20043;-34
2022/08/19 11:12:36;;;;;;;7.55;4.43;;;;;;;;;;5052278;28;20082;-37
2022/08/19 11:15:01;;;;;;;7.18;3.58;;;;;;;;;;5048802;28;20025;-37
2022/08/19 11:17:27;;;;;;;10.60;3.37;;;;;;;;;;5063120;28;20027;-38
2022/08/19 11:19:52;;;;;;;7.30;4.55;;;;;;;;;;5060270;28;20322;-36
2022/08/19 11:22:18;;;;;;;10.33;3.77;;;;;;;;;;5064621;28;20037;-35
2022/08/19 11:24:43;;;;;;;7.53;3.20;;;;;;;;;;5052803;28;20359;-36
2022/08/19 11:27:09;;;;;;;5.32;3.63;;;;;;;;;;5056225;28;20041;-34
2022/08/19 11:29:36;;;;;;;8.48;3.88;;;;;;;;;;5058943;28;20427;-36
2022/08/19 11:32:05;;;;;;;18.50;4.40;;;;;;;;;;5057922;28;20048;-34
2022/08/19 11:34:31;;;;;;;10.85;3.80;;;;;;;;;;5065843;28;20110;-35
2022/08/19 11:36:59;;;;;;;8.73;4.05;;;;;;;;;;5065431;28;20480;-35
2022/08/19 11:39:26;;;;;;;7.70;3.80;;;;;;;;;;5067232;28;20028;-36
2022/08/19 11:41:51;;;;;;;10.55;4.32;;;;;;;;;;5067772;28;20492;-35
2022/08/19 11:44:17;;;;;;;6.20;3.72;;;;;;;;;;5066017;28;20082;-34
2022/08/19 11:46:46;;;;;;;6.95;3.50;;;;;;;;;;5066355;28;20059;-34
2022/08/19 11:49:12;;;;;;;13.55;3.42;;;;;;;;;;5067018;28;20159;-36
2022/08/19 11:51:37;;;;;;;11.57;3.47;;;;;;;;;;5066998;28;20115;-34
2022/08/19 11:54:04;;;;;;;18.53;3.87;;;;;;;;;;5066236;28;20103;-35
2022/08/19 11:56:30;;;;;;;10.63;3.70;;;;;;;;;;5064637;28;20257;-36
2022/08/19 11:58:56;;;;;;;11.00;3.50;;;;;;;;;;5066237;28;20029;-35
2022/08/19 12:01:22;;;;;;;10.32;3.40;;;;;;;;;;5069310;28;20245;-34
2022/08/19 12:03:49;;;;;;;6.75;3.28;;;;;;;;;;5033068;28;20021;-35
2022/08/19 12:06:16;;;;;;;10.60;3.20;;;;;;;;;;5015814;28;20056;-36
2022/08/19 12:08:42;;;;;;;7.72;3.60;;;;;;;;;;5033262;28;20416;-34
2022/08/19 12:11:08;;;;;;;5.68;2.70;;;;;;;;;;5033579;28;20035;-36
2022/08/19 12:13:34;;;;;;;7.30;3.20;;;;;;;;;;5050727;28;20017;-37
2022/08/19 12:16:00;;;;;;;8.75;3.28;;;;;;;;;;5050291;28;20116;-35
2022/08/19 12:18:26;;;;;;;12.80;3.65;;;;;;;;;;5032486;28;20640;-34
2022/08/19 12:20:52;;;;;;;5.60;3.33;;;;;;;;;;5032443;28;20502;-36
2022/08/19 12:23:18;;;;;;;4.97;2.97;;;;;;;;;;5042430;28;20041;-36
2022/08/19 12:25:51;;;;;;;8.45;3.25;;;;;;;;;;5042546;28;20070;-35
2022/08/19 12:28:20;;;;;;;14.90;3.70;;;;;;;;;;5016900;28;20028;-36
2022/08/19 12:30:45;;;;;;;11.70;3.85;;;;;;;;;;5049374;28;20417;-34
2022/08/19 12:33:11;;;;;;;11.73;3.63;;;;;;;;;;5033738;28;20056;-35
2022/08/19 12:35:39;;;;;;;6.38;3.22;;;;;;;;;;5027893;28;20010;-35
2022/08/19 12:38:04;;;;;;;7.28;3.33;;;;;;;;;;5030338;28;20067;-36
2022/08/19 12:40:30;;;;;;;11.23;3.40;;;;;;;;;;5013014;28;20049;-35
2022/08/19 12:42:55;;;;;;;11.38;3.72;;;;;;;;;;5021583;28;20029;-35
2022/08/19 12:45:21;;;;;;;10.30;3.40;;;;;;;;;;5046062;28;20486;-35
2022/08/19 12:47:47;;;;;;;9.10;3.47;;;;;;;;;;5020626;28;20013;-34
2022/08/19 12:50:12;;;;;;;9.60;3.38;;;;;;;;;;5048475;28;20021;-39
2022/08/19 12:52:38;;;;;;;5.78;3.25;;;;;;;;;;5041178;28;20353;-35
2022/08/19 12:55:05;;;;;;;7.33;3.30;;;;;;;;;;5047342;28;20051;-38
2022/08/19 12:57:33;;;;;;;35.42;16.45;;;;;;;;;;5040519;28;20271;-37
2022/08/19 13:00:00;;;;;;;64.68;11.25;;;;;;;;;;5043504;28;20427;-37
2022/08/19 13:02:26;;;;;;;7.80;3.38;;;;;;;;;;5038548;28;20408;-38
2022/08/19 13:04:51;;;;;;;14.85;3.35;;;;;;;;;;5039615;28;20021;-35
2022/08/19 13:07:16;;;;;;;9.10;3.10;;;;;;;;;;5030478;28;20036;-35
2022/08/19 13:09:42;;;;;;;11.23;3.23;;;;;;;;;;5031341;28;20496;-34
2022/08/19 13:12:12;;;;;;;12.00;3.92;;;;;;;;;;5015157;28;20025;-35
2022/08/19 13:14:37;;;;;;;15.30;3.83;;;;;;;;;;5029183;28;20554;-35
2022/08/19 13:17:03;;;;;;;9.02;3.10;;;;;;;;;;5036982;28;20045;-35
2022/08/19 13:19:29;;;;;;;10.88;4.07;;;;;;;;;;5043475;28;20040;-35
2022/08/19 13:21:55;;;;;;;12.65;3.40;;;;;;;;;;5047164;28;20037;-37
2022/08/19 13:24:21;;;;;;;15.00;3.80;;;;;;;;;;5038039;28;20017;-37
2022/08/19 13:26:46;;;;;;;11.93;3.58;;;;;;;;;;5038555;28;20025;-35
2022/08/19 13:34:52;;;;;;;15.73;3.70;;;;;;;;;;4985366;28;20084;-35
2022/08/19 13:37:40;;;;;;;10.97;3.20;;;;;;;;;;5050416;28;20388;-35
2022/08/19 13:40:03;;;;;;;6.90;3.45;;;;;;;;;;5049514;28;20112;-35
2022/08/19 13:42:29;;;;;;;7.78;3.90;;;;;;;;;;5031461;28;20119;-35
2022/08/19 13:44:55;;;;;;;13.15;3.72;;;;;;;;;;5050428;28;20017;-35
2022/08/19 13:47:20;;;;;;;10.77;3.50;;;;;;;;;;5049246;28;20147;-35
2022/08/19 13:49:46;;;;;;;10.82;3.72;;;;;;;;;;5033353;28;20021;-35
2022/08/19 13:52:11;;;;;;;11.98;3.83;;;;;;;;;;5052049;28;20066;-35
2022/08/19 13:54:36;;;;;;;6.70;3.53;;;;;;;;;;5033738;28;20021;-35
2022/08/19 13:57:02;;;;;;;12.10;4.67;;;;;;;;;;5033165;28;20048;-35
2022/08/19 13:59:27;;;;;;;5.72;3.40;;;;;;;;;;5052000;28;20025;-35
2022/08/19 14:01:53;;;;;;;12.30;4.03;;;;;;;;;;5041498;28;20134;-35
2022/08/19 14:04:18;;;;;;;7.63;3.85;;;;;;;;;;5071342;28;20498;-35
2022/08/19 14:06:43;;;;;;;12.93;3.78;;;;;;;;;;5073458;28;20029;-35
2022/08/19 14:09:09;;;;;;;10.50;3.77;;;;;;;;;;5072357;28;20020;-34
2022/08/19 14:11:34;;;;;;;16.73;4.50;;;;;;;;;;5072232;28;20066;-35
2022/08/19 14:13:59;;;;;;;11.90;3.97;;;;;;;;;;5073798;28;20242;-35
2022/08/19 14:16:25;;;;;;;12.37;3.23;;;;;;;;;;5072752;28;20020;-36
2022/08/19 14:18:50;;;;;;;7.20;3.70;;;;;;;;;;5072716;28;20252;-35
2022/08/19 14:21:23;;;;;;;9.80;3.63;;;;;;;;;;5073919;28;20248;-36
2022/08/19 14:23:48;;;;;;;10.05;4.22;;;;;;;;;;5073319;28;20046;-34
2022/08/19 14:26:15;;;;;;;16.47;4.73;;;;;;;;;;5073621;28;20028;-36
2022/08/19 14:28:41;;;;;;;28.92;4.95;;;;;;;;;;5072820;28;20044;-35
2022/08/19 14:31:07;;;;;;;48.50;6.63;;;;;;;;;;5073613;28;20023;-37
2022/08/19 14:33:32;;;;;;;32.83;4.43;;;;;;;;;;5073019;28;20036;-36
2022/08/19 14:35:59;;;;;;;19.53;3.87;;;;;;;;;;5073591;28;20024;-34
2022/08/19 14:38:24;;;;;;;23.52;4.03;;;;;;;;;;5073323;28;20021;-35
2022/08/19 14:40:51;;;;;;;31.37;3.83;;;;;;;;;;5071841;28;20023;-35
2022/08/19 14:43:17;;;;;;;29.92;4.22;;;;;;;;;;5072968;28;20051;-35
2022/08/19 14:45:43;;;;;;;24.52;3.60;;;;;;;;;;5073332;28;20421;-38
2022/08/19 14:48:08;;;;;;;19.92;4.10;;;;;;;;;;5072862;28;20456;-35
2022/08/19 14:50:35;;;;;;;27.95;4.30;;;;;;;;;;5073061;28;20016;-37
2022/08/19 14:53:03;;;;;;;21.45;3.15;;;;;;;;;;5073837;28;20403;-37